sensor_id;sensor_type;location;lat;lon;timestamp;temperature;humidity
40374;DHT22;26079;45.958;12.492;2023-08-31T00:00:29;15.60;99.90
40374;DHT22;26079;45.958;12.492;2023-08-31T00:02:57;15.60;99.90
40374;DHT22;26079;45.958;12.492;2023-08-31T00:05:23;15.60;99.90
40374;DHT22;26079;45.958;12.492;2023-08-31T00:07:50;15.60;99.90
40374;DHT22;26079;45.958;12.492;2023-08-31T00:10:16;15.60;99.90
40374;DHT22;26079;45.958;12.492;2023-08-31T00:12:43;15.60;99.90
40374;DHT22;26079;45.958;12.492;2023-08-31T00:15:09;15.70;99.90
40374;DHT22;26079;45.958;12.492;2023-08-31T00:17:35;15.80;99.90
40374;DHT22;26079;45.958;12.492;2023-08-31T00:20:01;15.80;99.90
40374;DHT22;26079;45.958;12.492;2023-08-31T00:22:31;15.90;99.90
40374;DHT22;26079;45.958;12.492;2023-08-31T00:24:56;15.90;99.90
40374;DHT22;26079;45.958;12.492;2023-08-31T00:27:22;15.90;99.90
40374;DHT22;26079;45.958;12.492;2023-08-31T00:29:48;15.90;99.90
40374;DHT22;26079;45.958;12.492;2023-08-31T00:32:17;15.80;99.90
40374;DHT22;26079;45.958;12.492;2023-08-31T00:34:49;15.70;99.90
40374;DHT22;26079;45.958;12.492;2023-08-31T00:37:15;15.70;99.90
40374;DHT22;26079;45.958;12.492;2023-08-31T00:39:40;15.70;99.90
40374;DHT22;26079;45.958;12.492;2023-08-31T00:42:06;15.70;99.90
40374;DHT22;26079;45.958;12.492;2023-08-31T00:44:33;15.80;99.90
40374;DHT22;26079;45.958;12.492;2023-08-31T00:46:58;15.80;99.90
40374;DHT22;26079;45.958;12.492;2023-08-31T00:49:25;15.80;99.90
40374;DHT22;26079;45.958;12.492;2023-08-31T00:51:51;15.80;99.90
40374;DHT22;26079;45.958;12.492;2023-08-31T00:54:17;15.80;99.90
40374;DHT22;26079;45.958;12.492;2023-08-31T00:56:43;15.70;99.90
40374;DHT22;26079;45.958;12.492;2023-08-31T00:59:10;15.70;99.90
40374;DHT22;26079;45.958;12.492;2023-08-31T01:01:46;15.80;99.90
40374;DHT22;26079;45.958;12.492;2023-08-31T01:04:32;15.80;99.90
40374;DHT22;26079;45.958;12.492;2023-08-31T01:07:34;15.80;99.90
40374;DHT22;26079;45.958;12.492;2023-08-31T01:12:52;15.70;99.90
40374;DHT22;26079;45.958;12.492;2023-08-31T01:15:19;15.70;99.90
40374;DHT22;26079;45.958;12.492;2023-08-31T01:17:50;15.80;99.90
40374;DHT22;26079;45.958;12.492;2023-08-31T01:20:33;15.80;99.90
40374;DHT22;26079;45.958;12.492;2023-08-31T01:23:06;15.80;99.90
40374;DHT22;26079;45.958;12.492;2023-08-31T01:25:33;15.80;99.90
40374;DHT22;26079;45.958;12.492;2023-08-31T01:27:59;15.80;99.90
40374;DHT22;26079;45.958;12.492;2023-08-31T01:30:29;15.80;99.90
40374;DHT22;26079;45.958;12.492;2023-08-31T01:32:54;15.80;99.90
40374;DHT22;26079;45.958;12.492;2023-08-31T01:35:21;15.80;99.90
40374;DHT22;26079;45.958;12.492;2023-08-31T01:38:07;15.80;99.90
40374;DHT22;26079;45.958;12.492;2023-08-31T01:40:57;15.70;99.90
40374;DHT22;26079;45.958;12.492;2023-08-31T01:43:24;15.70;99.90
40374;DHT22;26079;45.958;12.492;2023-08-31T01:45:50;15.70;99.90
40374;DHT22;26079;45.958;12.492;2023-08-31T01:48:16;15.80;99.90
40374;DHT22;26079;45.958;12.492;2023-08-31T01:50:42;15.70;99.90
40374;DHT22;26079;45.958;12.492;2023-08-31T01:53:09;15.70;99.90
40374;DHT22;26079;45.958;12.492;2023-08-31T01:55:35;15.70;99.90
40374;DHT22;26079;45.958;12.492;2023-08-31T01:58:01;15.80;99.90
40374;DHT22;26079;45.958;12.492;2023-08-31T02:00:27;15.70;99.90
40374;DHT22;26079;45.958;12.492;2023-08-31T02:02:53;15.70;99.90
40374;DHT22;26079;45.958;12.492;2023-08-31T02:05:19;15.80;99.90
40374;DHT22;26079;45.958;12.492;2023-08-31T02:07:45;15.80;99.90
40374;DHT22;26079;45.958;12.492;2023-08-31T02:10:10;15.80;99.90
40374;DHT22;26079;45.958;12.492;2023-08-31T02:12:36;15.70;99.90
40374;DHT22;26079;45.958;12.492;2023-08-31T02:15:04;15.80;99.90
40374;DHT22;26079;45.958;12.492;2023-08-31T02:17:31;15.70;99.90
40374;DHT22;26079;45.958;12.492;2023-08-31T02:19:57;15.70;99.90
40374;DHT22;26079;45.958;12.492;2023-08-31T02:22:23;15.70;99.90
40374;DHT22;26079;45.958;12.492;2023-08-31T02:24:49;15.60;99.90
40374;DHT22;26079;45.958;12.492;2023-08-31T02:27:14;15.60;99.90
40374;DHT22;26079;45.958;12.492;2023-08-31T02:29:40;15.60;99.90
40374;DHT22;26079;45.958;12.492;2023-08-31T02:32:06;15.60;99.90
40374;DHT22;26079;45.958;12.492;2023-08-31T02:34:32;15.70;99.90
40374;DHT22;26079;45.958;12.492;2023-08-31T02:36:57;15.70;99.90
40374;DHT22;26079;45.958;12.492;2023-08-31T02:39:23;15.70;99.90
40374;DHT22;26079;45.958;12.492;2023-08-31T02:41:49;15.70;99.90
40374;DHT22;26079;45.958;12.492;2023-08-31T02:44:15;15.70;99.90
40374;DHT22;26079;45.958;12.492;2023-08-31T02:46:41;15.80;99.90
40374;DHT22;26079;45.958;12.492;2023-08-31T02:49:06;15.80;99.90
40374;DHT22;26079;45.958;12.492;2023-08-31T02:51:32;15.70;99.90
40374;DHT22;26079;45.958;12.492;2023-08-31T02:53:58;15.70;99.90
40374;DHT22;26079;45.958;12.492;2023-08-31T02:56:23;15.80;99.90
40374;DHT22;26079;45.958;12.492;2023-08-31T02:58:49;15.80;99.90
40374;DHT22;26079;45.958;12.492;2023-08-31T03:01:15;15.80;99.90
40374;DHT22;26079;45.958;12.492;2023-08-31T03:03:42;15.80;99.90
40374;DHT22;26079;45.958;12.492;2023-08-31T03:06:09;15.60;99.90
40374;DHT22;26079;45.958;12.492;2023-08-31T03:08:38;15.50;99.90
40374;DHT22;26079;45.958;12.492;2023-08-31T03:11:05;15.50;99.90
40374;DHT22;26079;45.958;12.492;2023-08-31T03:13:33;15.50;99.90
40374;DHT22;26079;45.958;12.492;2023-08-31T03:16:00;15.60;99.90
40374;DHT22;26079;45.958;12.492;2023-08-31T03:18:26;15.50;99.90
40374;DHT22;26079;45.958;12.492;2023-08-31T03:20:51;15.60;99.90
40374;DHT22;26079;45.958;12.492;2023-08-31T03:23:17;15.60;99.90
40374;DHT22;26079;45.958;12.492;2023-08-31T03:25:43;15.60;99.90
40374;DHT22;26079;45.958;12.492;2023-08-31T03:28:09;15.60;99.90
40374;DHT22;26079;45.958;12.492;2023-08-31T03:30:35;15.70;99.90
40374;DHT22;26079;45.958;12.492;2023-08-31T03:33:01;15.60;99.90
40374;DHT22;26079;45.958;12.492;2023-08-31T03:35:28;15.60;99.90
40374;DHT22;26079;45.958;12.492;2023-08-31T03:37:54;15.60;99.90
40374;DHT22;26079;45.958;12.492;2023-08-31T03:40:20;15.50;99.90
40374;DHT22;26079;45.958;12.492;2023-08-31T03:42:46;15.50;99.90
40374;DHT22;26079;45.958;12.492;2023-08-31T03:45:11;15.40;99.90
40374;DHT22;26079;45.958;12.492;2023-08-31T03:47:37;15.50;99.90
40374;DHT22;26079;45.958;12.492;2023-08-31T03:50:04;15.50;99.90
40374;DHT22;26079;45.958;12.492;2023-08-31T03:52:30;15.50;99.90
40374;DHT22;26079;45.958;12.492;2023-08-31T03:54:55;15.60;99.90
40374;DHT22;26079;45.958;12.492;2023-08-31T03:57:21;15.50;99.90
40374;DHT22;26079;45.958;12.492;2023-08-31T03:59:47;15.60;99.90
40374;DHT22;26079;45.958;12.492;2023-08-31T04:02:13;15.60;99.90
40374;DHT22;26079;45.958;12.492;2023-08-31T04:04:38;15.60;99.90
40374;DHT22;26079;45.958;12.492;2023-08-31T04:07:05;15.60;99.90
40374;DHT22;26079;45.958;12.492;2023-08-31T04:09:32;15.60;99.90
40374;DHT22;26079;45.958;12.492;2023-08-31T04:11:58;15.60;99.90
40374;DHT22;26079;45.958;12.492;2023-08-31T04:14:25;15.50;99.90
40374;DHT22;26079;45.958;12.492;2023-08-31T04:16:51;15.50;99.90
40374;DHT22;26079;45.958;12.492;2023-08-31T04:19:17;15.50;99.90
40374;DHT22;26079;45.958;12.492;2023-08-31T04:21:43;15.40;99.90
40374;DHT22;26079;45.958;12.492;2023-08-31T04:24:09;15.50;99.90
40374;DHT22;26079;45.958;12.492;2023-08-31T04:26:35;15.50;99.90
40374;DHT22;26079;45.958;12.492;2023-08-31T04:29:02;15.60;99.90
40374;DHT22;26079;45.958;12.492;2023-08-31T04:31:28;15.60;99.90
40374;DHT22;26079;45.958;12.492;2023-08-31T04:33:54;15.70;99.90
40374;DHT22;26079;45.958;12.492;2023-08-31T04:36:21;15.70;99.90
40374;DHT22;26079;45.958;12.492;2023-08-31T04:38:48;15.70;99.90
40374;DHT22;26079;45.958;12.492;2023-08-31T04:41:17;15.70;99.90
40374;DHT22;26079;45.958;12.492;2023-08-31T04:43:42;15.60;99.90
40374;DHT22;26079;45.958;12.492;2023-08-31T04:46:08;15.50;99.90
40374;DHT22;26079;45.958;12.492;2023-08-31T04:48:35;15.60;99.90
40374;DHT22;26079;45.958;12.492;2023-08-31T04:51:02;15.60;99.90
40374;DHT22;26079;45.958;12.492;2023-08-31T04:53:29;15.60;99.90
40374;DHT22;26079;45.958;12.492;2023-08-31T04:55:55;15.60;99.90
40374;DHT22;26079;45.958;12.492;2023-08-31T04:58:21;15.60;99.90
40374;DHT22;26079;45.958;12.492;2023-08-31T05:00:47;15.70;99.90
40374;DHT22;26079;45.958;12.492;2023-08-31T05:03:13;15.80;99.90
40374;DHT22;26079;45.958;12.492;2023-08-31T05:05:39;15.80;99.90
40374;DHT22;26079;45.958;12.492;2023-08-31T05:08:08;15.80;99.90
40374;DHT22;26079;45.958;12.492;2023-08-31T05:10:33;15.90;99.90
40374;DHT22;26079;45.958;12.492;2023-08-31T05:12:59;16.00;99.90
40374;DHT22;26079;45.958;12.492;2023-08-31T05:15:25;16.10;99.90
40374;DHT22;26079;45.958;12.492;2023-08-31T05:17:53;16.10;99.90
40374;DHT22;26079;45.958;12.492;2023-08-31T05:20:19;16.20;99.90
40374;DHT22;26079;45.958;12.492;2023-08-31T05:22:44;16.20;99.90
40374;DHT22;26079;45.958;12.492;2023-08-31T05:25:10;16.20;99.90
40374;DHT22;26079;45.958;12.492;2023-08-31T05:27:36;16.10;99.90
40374;DHT22;26079;45.958;12.492;2023-08-31T05:30:01;16.10;99.90
40374;DHT22;26079;45.958;12.492;2023-08-31T05:32:30;16.20;99.90
40374;DHT22;26079;45.958;12.492;2023-08-31T05:34:56;16.20;99.90
40374;DHT22;26079;45.958;12.492;2023-08-31T05:37:22;16.20;99.90
40374;DHT22;26079;45.958;12.492;2023-08-31T05:39:48;16.30;99.90
40374;DHT22;26079;45.958;12.492;2023-08-31T05:42:15;16.40;99.90
40374;DHT22;26079;45.958;12.492;2023-08-31T05:44:41;16.40;99.90
40374;DHT22;26079;45.958;12.492;2023-08-31T05:47:06;16.50;99.90
40374;DHT22;26079;45.958;12.492;2023-08-31T05:49:32;16.70;99.90
40374;DHT22;26079;45.958;12.492;2023-08-31T05:51:58;16.80;99.90
40374;DHT22;26079;45.958;12.492;2023-08-31T05:54:24;17.00;99.90
40374;DHT22;26079;45.958;12.492;2023-08-31T05:56:50;17.40;99.90
40374;DHT22;26079;45.958;12.492;2023-08-31T05:59:15;17.70;99.90
40374;DHT22;26079;45.958;12.492;2023-08-31T06:01:43;17.80;99.90
40374;DHT22;26079;45.958;12.492;2023-08-31T06:04:08;17.80;99.90
40374;DHT22;26079;45.958;12.492;2023-08-31T06:06:35;17.80;99.90
40374;DHT22;26079;45.958;12.492;2023-08-31T06:09:01;17.70;99.90
40374;DHT22;26079;45.958;12.492;2023-08-31T06:11:26;17.60;99.90
40374;DHT22;26079;45.958;12.492;2023-08-31T06:13:52;17.60;99.90
40374;DHT22;26079;45.958;12.492;2023-08-31T06:16:18;17.80;99.90
40374;DHT22;26079;45.958;12.492;2023-08-31T06:18:43;18.40;99.90
40374;DHT22;26079;45.958;12.492;2023-08-31T06:21:09;18.60;99.90
40374;DHT22;26079;45.958;12.492;2023-08-31T06:23:35;18.50;99.90
40374;DHT22;26079;45.958;12.492;2023-08-31T06:26:01;18.60;99.90
40374;DHT22;26079;45.958;12.492;2023-08-31T06:28:27;18.70;99.90
40374;DHT22;26079;45.958;12.492;2023-08-31T06:30:52;18.50;99.90
40374;DHT22;26079;45.958;12.492;2023-08-31T06:33:18;18.30;99.90
40374;DHT22;26079;45.958;12.492;2023-08-31T06:35:48;18.20;99.90
40374;DHT22;26079;45.958;12.492;2023-08-31T06:38:17;18.20;99.90
40374;DHT22;26079;45.958;12.492;2023-08-31T06:40:43;18.20;99.90
40374;DHT22;26079;45.958;12.492;2023-08-31T06:43:11;18.20;99.90
40374;DHT22;26079;45.958;12.492;2023-08-31T06:45:37;18.20;99.90
40374;DHT22;26079;45.958;12.492;2023-08-31T06:48:03;18.30;99.90
40374;DHT22;26079;45.958;12.492;2023-08-31T06:50:29;18.30;99.90
40374;DHT22;26079;45.958;12.492;2023-08-31T06:52:55;18.50;99.90
40374;DHT22;26079;45.958;12.492;2023-08-31T06:55:21;18.50;99.90
40374;DHT22;26079;45.958;12.492;2023-08-31T06:57:46;18.70;99.90
40374;DHT22;26079;45.958;12.492;2023-08-31T07:00:12;18.90;99.90
40374;DHT22;26079;45.958;12.492;2023-08-31T07:02:41;19.00;99.90
40374;DHT22;26079;45.958;12.492;2023-08-31T07:05:08;19.10;99.90
40374;DHT22;26079;45.958;12.492;2023-08-31T07:07:34;19.20;99.90
40374;DHT22;26079;45.958;12.492;2023-08-31T07:10:00;19.40;99.90
40374;DHT22;26079;45.958;12.492;2023-08-31T07:12:25;19.50;99.90
40374;DHT22;26079;45.958;12.492;2023-08-31T07:14:51;19.60;99.90
40374;DHT22;26079;45.958;12.492;2023-08-31T07:17:20;19.60;99.70
40374;DHT22;26079;45.958;12.492;2023-08-31T07:19:46;19.60;98.50
40374;DHT22;26079;45.958;12.492;2023-08-31T07:22:11;19.60;98.60
40374;DHT22;26079;45.958;12.492;2023-08-31T07:24:37;19.60;99.60
40374;DHT22;26079;45.958;12.492;2023-08-31T07:27:04;19.80;98.30
40374;DHT22;26079;45.958;12.492;2023-08-31T07:29:30;19.80;98.30
40374;DHT22;26079;45.958;12.492;2023-08-31T07:31:55;19.70;99.20
40374;DHT22;26079;45.958;12.492;2023-08-31T07:34:22;19.60;98.30
40374;DHT22;26079;45.958;12.492;2023-08-31T07:36:47;19.70;97.80
40374;DHT22;26079;45.958;12.492;2023-08-31T07:39:13;19.70;97.90
40374;DHT22;26079;45.958;12.492;2023-08-31T07:41:39;19.80;97.90
40374;DHT22;26079;45.958;12.492;2023-08-31T07:44:05;19.90;98.40
40374;DHT22;26079;45.958;12.492;2023-08-31T07:46:31;20.00;98.40
40374;DHT22;26079;45.958;12.492;2023-08-31T07:48:57;20.10;99.10
40374;DHT22;26079;45.958;12.492;2023-08-31T07:51:23;20.00;96.60
40374;DHT22;26079;45.958;12.492;2023-08-31T07:53:50;19.90;97.10
40374;DHT22;26079;45.958;12.492;2023-08-31T07:56:15;19.90;98.70
40374;DHT22;26079;45.958;12.492;2023-08-31T07:58:41;20.10;98.60
40374;DHT22;26079;45.958;12.492;2023-08-31T08:01:07;20.30;99.00
40374;DHT22;26079;45.958;12.492;2023-08-31T08:03:32;20.60;97.10
40374;DHT22;26079;45.958;12.492;2023-08-31T08:05:58;20.80;95.10
40374;DHT22;26079;45.958;12.492;2023-08-31T08:08:24;20.80;91.20
40374;DHT22;26079;45.958;12.492;2023-08-31T08:10:53;20.80;91.00
40374;DHT22;26079;45.958;12.492;2023-08-31T08:13:19;20.70;90.90
40374;DHT22;26079;45.958;12.492;2023-08-31T08:15:45;20.80;91.80
40374;DHT22;26079;45.958;12.492;2023-08-31T08:18:11;20.70;92.70
40374;DHT22;26079;45.958;12.492;2023-08-31T08:20:37;20.90;92.90
40374;DHT22;26079;45.958;12.492;2023-08-31T08:23:03;21.00;92.00
40374;DHT22;26079;45.958;12.492;2023-08-31T08:25:28;21.00;90.80
40374;DHT22;26079;45.958;12.492;2023-08-31T08:27:54;21.00;91.00
40374;DHT22;26079;45.958;12.492;2023-08-31T08:30:20;21.10;89.50
40374;DHT22;26079;45.958;12.492;2023-08-31T08:32:45;21.10;90.10
40374;DHT22;26079;45.958;12.492;2023-08-31T08:35:11;21.20;90.50
40374;DHT22;26079;45.958;12.492;2023-08-31T08:37:37;21.30;89.90
40374;DHT22;26079;45.958;12.492;2023-08-31T08:40:03;21.40;89.30
40374;DHT22;26079;45.958;12.492;2023-08-31T08:42:32;21.40;89.00
40374;DHT22;26079;45.958;12.492;2023-08-31T08:45:02;21.40;87.70
40374;DHT22;26079;45.958;12.492;2023-08-31T08:47:28;21.50;88.40
40374;DHT22;26079;45.958;12.492;2023-08-31T08:49:55;21.40;90.10
40374;DHT22;26079;45.958;12.492;2023-08-31T08:52:23;21.40;88.90
40374;DHT22;26079;45.958;12.492;2023-08-31T08:54:49;21.50;86.90
40374;DHT22;26079;45.958;12.492;2023-08-31T08:57:16;21.60;87.00
40374;DHT22;26079;45.958;12.492;2023-08-31T08:59:41;21.60;89.00
40374;DHT22;26079;45.958;12.492;2023-08-31T09:02:09;21.80;89.60
40374;DHT22;26079;45.958;12.492;2023-08-31T09:04:36;21.80;86.30
40374;DHT22;26079;45.958;12.492;2023-08-31T09:07:01;21.90;88.70
40374;DHT22;26079;45.958;12.492;2023-08-31T09:09:28;21.90;86.90
40374;DHT22;26079;45.958;12.492;2023-08-31T09:11:53;21.90;87.70
40374;DHT22;26079;45.958;12.492;2023-08-31T09:14:21;21.90;87.70
40374;DHT22;26079;45.958;12.492;2023-08-31T09:16:49;22.10;85.90
40374;DHT22;26079;45.958;12.492;2023-08-31T09:19:25;22.20;85.40
40374;DHT22;26079;45.958;12.492;2023-08-31T09:21:56;22.30;86.70
40374;DHT22;26079;45.958;12.492;2023-08-31T09:24:22;22.30;84.50
40374;DHT22;26079;45.958;12.492;2023-08-31T09:26:58;22.30;84.00
40374;DHT22;26079;45.958;12.492;2023-08-31T09:29:24;22.20;85.80
40374;DHT22;26079;45.958;12.492;2023-08-31T09:31:50;22.40;84.40
40374;DHT22;26079;45.958;12.492;2023-08-31T09:34:17;22.40;80.50
40374;DHT22;26079;45.958;12.492;2023-08-31T09:36:44;22.50;79.20
40374;DHT22;26079;45.958;12.492;2023-08-31T09:39:10;22.50;81.20
40374;DHT22;26079;45.958;12.492;2023-08-31T09:41:55;22.50;83.60
40374;DHT22;26079;45.958;12.492;2023-08-31T09:44:22;22.50;83.90
40374;DHT22;26079;45.958;12.492;2023-08-31T09:46:48;22.60;80.80
40374;DHT22;26079;45.958;12.492;2023-08-31T09:49:15;22.80;80.20
40374;DHT22;26079;45.958;12.492;2023-08-31T09:51:49;22.80;80.70
40374;DHT22;26079;45.958;12.492;2023-08-31T09:54:17;22.80;81.60
40374;DHT22;26079;45.958;12.492;2023-08-31T09:56:45;22.90;81.10
40374;DHT22;26079;45.958;12.492;2023-08-31T09:59:15;22.90;82.50
40374;DHT22;26079;45.958;12.492;2023-08-31T10:02:00;22.90;82.00
40374;DHT22;26079;45.958;12.492;2023-08-31T10:04:28;22.90;81.00
40374;DHT22;26079;45.958;12.492;2023-08-31T10:06:54;22.80;82.80
40374;DHT22;26079;45.958;12.492;2023-08-31T10:09:20;22.90;81.90
40374;DHT22;26079;45.958;12.492;2023-08-31T10:11:46;23.00;81.80
40374;DHT22;26079;45.958;12.492;2023-08-31T10:14:13;23.10;82.60
40374;DHT22;26079;45.958;12.492;2023-08-31T10:16:41;23.20;81.80
40374;DHT22;26079;45.958;12.492;2023-08-31T10:19:09;23.30;83.10
40374;DHT22;26079;45.958;12.492;2023-08-31T10:21:35;23.30;82.40
40374;DHT22;26079;45.958;12.492;2023-08-31T10:24:00;23.30;80.70
40374;DHT22;26079;45.958;12.492;2023-08-31T10:26:28;23.30;80.90
40374;DHT22;26079;45.958;12.492;2023-08-31T10:28:55;23.30;81.60
40374;DHT22;26079;45.958;12.492;2023-08-31T10:31:21;23.40;81.80
40374;DHT22;26079;45.958;12.492;2023-08-31T10:34:05;23.40;79.90
40374;DHT22;26079;45.958;12.492;2023-08-31T10:36:39;23.50;80.30
40374;DHT22;26079;45.958;12.492;2023-08-31T10:39:18;23.50;81.60
40374;DHT22;26079;45.958;12.492;2023-08-31T10:41:54;23.50;81.40
40374;DHT22;26079;45.958;12.492;2023-08-31T10:44:27;23.60;80.80
40374;DHT22;26079;45.958;12.492;2023-08-31T10:46:54;23.60;79.70
40374;DHT22;26079;45.958;12.492;2023-08-31T10:49:21;23.50;78.70
40374;DHT22;26079;45.958;12.492;2023-08-31T10:51:50;23.50;80.30
40374;DHT22;26079;45.958;12.492;2023-08-31T10:59:24;23.70;82.70
40374;DHT22;26079;45.958;12.492;2023-08-31T11:02:01;23.80;79.70
40374;DHT22;26079;45.958;12.492;2023-08-31T11:04:30;24.00;76.90
40374;DHT22;26079;45.958;12.492;2023-08-31T11:09:41;24.40;75.80
40374;DHT22;26079;45.958;12.492;2023-08-31T11:12:07;24.40;77.80
40374;DHT22;26079;45.958;12.492;2023-08-31T11:14:33;24.40;77.80
40374;DHT22;26079;45.958;12.492;2023-08-31T11:16:59;24.50;78.20
40374;DHT22;26079;45.958;12.492;2023-08-31T11:19:27;24.60;77.90
40374;DHT22;26079;45.958;12.492;2023-08-31T11:21:54;24.70;77.80
40374;DHT22;26079;45.958;12.492;2023-08-31T11:24:20;25.00;78.40
40374;DHT22;26079;45.958;12.492;2023-08-31T11:26:50;25.10;75.60
40374;DHT22;26079;45.958;12.492;2023-08-31T11:29:16;25.00;76.40
40374;DHT22;26079;45.958;12.492;2023-08-31T11:31:42;25.00;77.10
40374;DHT22;26079;45.958;12.492;2023-08-31T11:34:15;24.80;76.20
40374;DHT22;26079;45.958;12.492;2023-08-31T11:36:41;25.00;77.10
40374;DHT22;26079;45.958;12.492;2023-08-31T11:39:09;25.10;77.50
40374;DHT22;26079;45.958;12.492;2023-08-31T11:41:35;25.30;77.00
40374;DHT22;26079;45.958;12.492;2023-08-31T11:44:03;25.40;77.30
40374;DHT22;26079;45.958;12.492;2023-08-31T11:46:30;25.50;77.20
40374;DHT22;26079;45.958;12.492;2023-08-31T11:48:58;25.40;76.70
40374;DHT22;26079;45.958;12.492;2023-08-31T11:51:24;25.30;76.20
40374;DHT22;26079;45.958;12.492;2023-08-31T11:53:50;25.10;77.20
40374;DHT22;26079;45.958;12.492;2023-08-31T11:56:16;24.90;79.40
40374;DHT22;26079;45.958;12.492;2023-08-31T11:58:42;24.80;79.60
40374;DHT22;26079;45.958;12.492;2023-08-31T12:01:08;24.80;80.20
40374;DHT22;26079;45.958;12.492;2023-08-31T12:03:44;24.80;79.50
40374;DHT22;26079;45.958;12.492;2023-08-31T12:06:10;25.00;79.30
40374;DHT22;26079;45.958;12.492;2023-08-31T12:08:37;25.30;78.10
40374;DHT22;26079;45.958;12.492;2023-08-31T12:11:06;25.40;77.90
40374;DHT22;26079;45.958;12.492;2023-08-31T12:13:31;25.30;77.10
40374;DHT22;26079;45.958;12.492;2023-08-31T12:15:57;25.10;77.40
40374;DHT22;26079;45.958;12.492;2023-08-31T12:18:23;25.00;78.90
40374;DHT22;26079;45.958;12.492;2023-08-31T12:20:52;25.10;78.90
40374;DHT22;26079;45.958;12.492;2023-08-31T12:23:19;25.10;79.20
40374;DHT22;26079;45.958;12.492;2023-08-31T12:25:54;25.10;79.10
40374;DHT22;26079;45.958;12.492;2023-08-31T12:28:20;24.80;78.40
40374;DHT22;26079;45.958;12.492;2023-08-31T12:30:54;24.70;80.10
40374;DHT22;26079;45.958;12.492;2023-08-31T12:33:21;24.50;80.20
40374;DHT22;26079;45.958;12.492;2023-08-31T12:35:47;24.50;80.00
40374;DHT22;26079;45.958;12.492;2023-08-31T12:38:13;24.60;80.20
40374;DHT22;26079;45.958;12.492;2023-08-31T12:40:40;24.90;78.10
40374;DHT22;26079;45.958;12.492;2023-08-31T12:43:06;24.80;77.20
40374;DHT22;26079;45.958;12.492;2023-08-31T12:45:32;24.70;79.60
40374;DHT22;26079;45.958;12.492;2023-08-31T12:47:58;24.90;80.00
40374;DHT22;26079;45.958;12.492;2023-08-31T12:50:24;25.20;79.40
40374;DHT22;26079;45.958;12.492;2023-08-31T12:52:49;25.50;77.50
40374;DHT22;26079;45.958;12.492;2023-08-31T12:55:16;25.50;77.50
40374;DHT22;26079;45.958;12.492;2023-08-31T12:57:43;25.50;77.20
40374;DHT22;26079;45.958;12.492;2023-08-31T13:00:10;25.60;78.30
40374;DHT22;26079;45.958;12.492;2023-08-31T13:02:40;25.50;76.70
40374;DHT22;26079;45.958;12.492;2023-08-31T13:05:07;25.70;77.20
40374;DHT22;26079;45.958;12.492;2023-08-31T13:07:35;25.70;77.50
40374;DHT22;26079;45.958;12.492;2023-08-31T13:10:01;25.50;77.50
40374;DHT22;26079;45.958;12.492;2023-08-31T13:12:30;25.60;77.60
40374;DHT22;26079;45.958;12.492;2023-08-31T13:14:56;25.80;75.80
40374;DHT22;26079;45.958;12.492;2023-08-31T13:17:21;25.80;76.80
40374;DHT22;26079;45.958;12.492;2023-08-31T13:19:55;25.80;76.60
40374;DHT22;26079;45.958;12.492;2023-08-31T13:22:21;25.70;77.70
40374;DHT22;26079;45.958;12.492;2023-08-31T13:24:47;25.80;78.70
40374;DHT22;26079;45.958;12.492;2023-08-31T13:27:13;25.70;77.60
40374;DHT22;26079;45.958;12.492;2023-08-31T13:29:39;25.70;78.40
40374;DHT22;26079;45.958;12.492;2023-08-31T13:32:05;25.50;77.70
40374;DHT22;26079;45.958;12.492;2023-08-31T13:34:32;25.40;78.30
40374;DHT22;26079;45.958;12.492;2023-08-31T13:36:58;25.10;78.40
40374;DHT22;26079;45.958;12.492;2023-08-31T13:39:25;24.90;79.40
40374;DHT22;26079;45.958;12.492;2023-08-31T13:41:51;24.90;79.60
40374;DHT22;26079;45.958;12.492;2023-08-31T13:44:18;24.80;81.20
40374;DHT22;26079;45.958;12.492;2023-08-31T13:46:43;24.60;79.80
40374;DHT22;26079;45.958;12.492;2023-08-31T13:49:09;24.20;81.40
40374;DHT22;26079;45.958;12.492;2023-08-31T13:51:35;23.80;84.30
40374;DHT22;26079;45.958;12.492;2023-08-31T13:54:02;23.50;85.60
40374;DHT22;26079;45.958;12.492;2023-08-31T13:56:31;23.30;86.40
40374;DHT22;26079;45.958;12.492;2023-08-31T13:58:56;22.70;87.80
40374;DHT22;26079;45.958;12.492;2023-08-31T14:01:24;22.40;90.60
40374;DHT22;26079;45.958;12.492;2023-08-31T14:03:50;22.10;91.50
40374;DHT22;26079;45.958;12.492;2023-08-31T14:06:16;21.80;91.50
40374;DHT22;26079;45.958;12.492;2023-08-31T14:08:42;21.90;92.40
40374;DHT22;26079;45.958;12.492;2023-08-31T14:11:07;21.90;91.30
40374;DHT22;26079;45.958;12.492;2023-08-31T14:13:33;21.60;91.10
40374;DHT22;26079;45.958;12.492;2023-08-31T14:16:00;21.10;93.10
40374;DHT22;26079;45.958;12.492;2023-08-31T14:18:29;20.80;94.80
40374;DHT22;26079;45.958;12.492;2023-08-31T14:20:57;20.60;95.20
40374;DHT22;26079;45.958;12.492;2023-08-31T14:23:24;20.40;95.30
40374;DHT22;26079;45.958;12.492;2023-08-31T14:25:50;20.20;95.50
40374;DHT22;26079;45.958;12.492;2023-08-31T14:28:16;20.10;95.40
40374;DHT22;26079;45.958;12.492;2023-08-31T14:30:41;19.90;95.90
40374;DHT22;26079;45.958;12.492;2023-08-31T14:33:07;19.90;96.20
40374;DHT22;26079;45.958;12.492;2023-08-31T14:35:36;19.80;97.80
40374;DHT22;26079;45.958;12.492;2023-08-31T14:38:02;19.80;99.30
40374;DHT22;26079;45.958;12.492;2023-08-31T14:40:29;19.70;97.90
40374;DHT22;26079;45.958;12.492;2023-08-31T14:42:54;19.60;98.80
40374;DHT22;26079;45.958;12.492;2023-08-31T14:45:20;19.60;99.30
40374;DHT22;26079;45.958;12.492;2023-08-31T14:47:46;19.60;98.10
40374;DHT22;26079;45.958;12.492;2023-08-31T14:50:11;19.50;98.60
40374;DHT22;26079;45.958;12.492;2023-08-31T14:52:37;19.50;97.90
40374;DHT22;26079;45.958;12.492;2023-08-31T14:55:03;19.40;98.00
40374;DHT22;26079;45.958;12.492;2023-08-31T14:57:30;19.40;98.30
40374;DHT22;26079;45.958;12.492;2023-08-31T14:59:56;19.50;99.90
40374;DHT22;26079;45.958;12.492;2023-08-31T15:02:24;19.40;99.90
40374;DHT22;26079;45.958;12.492;2023-08-31T15:04:50;19.20;99.90
40374;DHT22;26079;45.958;12.492;2023-08-31T15:07:16;19.10;99.90
40374;DHT22;26079;45.958;12.492;2023-08-31T15:09:43;19.10;99.90
40374;DHT22;26079;45.958;12.492;2023-08-31T15:12:09;19.10;99.90
40374;DHT22;26079;45.958;12.492;2023-08-31T15:14:35;19.00;99.90
40374;DHT22;26079;45.958;12.492;2023-08-31T15:17:00;19.00;99.90
40374;DHT22;26079;45.958;12.492;2023-08-31T15:19:26;19.00;99.90
40374;DHT22;26079;45.958;12.492;2023-08-31T15:21:52;19.00;99.90
40374;DHT22;26079;45.958;12.492;2023-08-31T15:24:17;19.00;99.90